createdAt,value
2022-09-30T00:02:19.776Z,98505.59
2022-09-30T00:04:46.231Z,98512.50
2022-09-30T00:07:12.532Z,98514.94
2022-09-30T00:09:38.950Z,98515.03
2022-09-30T00:12:05.348Z,98513.44
2022-09-30T00:14:32.011Z,98521.00
2022-09-30T00:16:58.410Z,98517.84
2022-09-30T00:19:24.783Z,98518.69
2022-09-30T00:21:51.204Z,98517.13
2022-09-30T00:24:17.611Z,98524.38
2022-09-30T00:26:43.966Z,98524.28
2022-09-30T00:29:11.238Z,98521.34
2022-09-30T00:31:38.176Z,98508.19
2022-09-30T00:34:04.741Z,98529.91
2022-09-30T00:36:31.204Z,98536.94
2022-09-30T00:38:58.054Z,98528.53
2022-09-30T00:41:24.448Z,98529.38
2022-09-30T00:43:51.139Z,98526.22
2022-09-30T00:46:41.012Z,98528.94
2022-09-30T00:49:18.833Z,98532.28
2022-09-30T00:51:50.699Z,98533.00
2022-09-30T00:54:22.298Z,98525.06
2022-09-30T00:56:52.758Z,98537.97
2022-09-30T00:59:24.199Z,98531.91
2022-09-30T01:01:51.246Z,98539.94
2022-09-30T01:04:21.135Z,98537.50
2022-09-30T01:06:48.345Z,98515.56
2022-09-30T01:09:15.421Z,98538.72
2022-09-30T01:15:36.965Z,98545.91
2022-09-30T01:18:21.474Z,98535.72
2022-09-30T01:21:11.047Z,98541.81
2022-09-30T01:23:57.237Z,98548.91
2022-09-30T01:26:35.530Z,98539.50
2022-09-30T01:29:13.994Z,98540.31
2022-09-30T01:31:49.888Z,98539.50
2022-09-30T01:34:51.333Z,98534.91
2022-09-30T01:37:54.844Z,98531.53
2022-09-30T01:40:30.355Z,98523.59
2022-09-30T01:43:20.327Z,98534.44
2022-09-30T01:45:55.669Z,98535.75
2022-09-30T01:48:28.250Z,98538.28
2022-09-30T01:51:07.212Z,98537.53
2022-09-30T01:53:48.746Z,98543.78
2022-09-30T01:56:22.286Z,98538.66
2022-09-30T01:58:56.707Z,98544.34
2022-09-30T02:01:36.885Z,98549.47
2022-09-30T02:04:19.976Z,98548.00
2022-09-30T02:06:53.331Z,98548.00
2022-09-30T02:09:30.237Z,98552.47
2022-09-30T02:12:02.171Z,98558.56
2022-09-30T02:14:37.453Z,98559.84
2022-09-30T02:17:10.436Z,98555.72
2022-09-30T02:19:45.431Z,98564.22
2022-09-30T02:22:21.185Z,98567.69
2022-09-30T02:24:53.696Z,98565.09
2022-09-30T02:27:28.439Z,98562.75
2022-09-30T02:30:00.801Z,98567.69
2022-09-30T02:32:59.319Z,98570.88
2022-09-30T02:35:40.904Z,98575.31
2022-09-30T02:38:23.953Z,98574.69
2022-09-30T02:40:54.945Z,98560.38
2022-09-30T02:43:21.478Z,98564.97
2022-09-30T02:46:05.366Z,98568.50
2022-09-30T02:48:57.031Z,98573.16
2022-09-30T02:51:37.594Z,98576.16
2022-09-30T02:54:19.841Z,98570.69
2022-09-30T02:56:54.541Z,98578.63
2022-09-30T02:59:23.518Z,98579.06
2022-09-30T03:01:50.155Z,98580.59
2022-09-30T03:04:23.095Z,98588.41
2022-09-30T03:06:50.056Z,98583.38
2022-09-30T03:09:17.206Z,98583.38
2022-09-30T03:11:43.939Z,98571.75
2022-09-30T03:14:47.154Z,98584.91
2022-09-30T03:17:46.326Z,98588.75
2022-09-30T03:20:27.184Z,98592.44
2022-09-30T03:23:27.403Z,98598.50
2022-09-30T03:26:02.980Z,98601.03
2022-09-30T03:28:42.406Z,98604.41
2022-09-30T03:31:21.064Z,98604.31
2022-09-30T03:34:19.367Z,98603.81
2022-09-30T03:37:03.890Z,98604.06
2022-09-30T03:39:47.255Z,98602.97
2022-09-30T03:42:23.219Z,98611.94
2022-09-30T03:45:05.273Z,98601.66
2022-09-30T03:47:38.089Z,98611.16
2022-09-30T03:50:08.540Z,98612.94
2022-09-30T03:52:36.281Z,98613.38
2022-09-30T03:55:05.971Z,98630.47
2022-09-30T03:57:32.398Z,98628.78
2022-09-30T03:59:59.885Z,98634.16
2022-09-30T04:02:27.640Z,98629.34
2022-09-30T04:04:54.147Z,98632.03
2022-09-30T04:07:20.493Z,98635.38
2022-09-30T04:09:47.157Z,98621.00
2022-09-30T04:12:14.122Z,98631.28
2022-09-30T04:14:40.446Z,98633.97
2022-09-30T04:17:07.227Z,98631.53
2022-09-30T04:19:33.627Z,98636.84
2022-09-30T04:22:00.010Z,98642.06
2022-09-30T04:24:26.381Z,98642.72
2022-09-30T04:26:52.759Z,98641.81
2022-09-30T04:29:19.257Z,98636.75
2022-09-30T04:31:46.031Z,98639.28
2022-09-30T04:34:12.456Z,98641.28
2022-09-30T04:36:39.059Z,98653.34
2022-09-30T04:39:05.661Z,98641.63
2022-09-30T04:41:32.409Z,98651.63
2022-09-30T04:43:59.080Z,98649.88
2022-09-30T04:46:25.579Z,98651.91
2022-09-30T04:48:51.953Z,98654.22
2022-09-30T04:51:20.581Z,98659.28
2022-09-30T04:53:48.205Z,98646.47
2022-09-30T04:56:15.549Z,98673.06
2022-09-30T04:58:42.209Z,98676.59
2022-09-30T05:01:14.639Z,98672.09
2022-09-30T05:03:41.543Z,98696.38
2022-09-30T05:06:08.492Z,98690.19
2022-09-30T05:08:35.658Z,98700.63
2022-09-30T05:11:07.720Z,98705.47
2022-09-30T05:13:37.319Z,98711.72
2022-09-30T05:16:04.466Z,98710.03
2022-09-30T05:18:31.809Z,98707.19
2022-09-30T05:20:58.254Z,98698.59
2022-09-30T05:23:26.286Z,98710.03
2022-09-30T05:25:52.794Z,98710.88
2022-09-30T05:28:20.099Z,98727.41
2022-09-30T05:30:46.952Z,98709.38
2022-09-30T05:33:14.236Z,98718.91
2022-09-30T05:35:41.580Z,98724.28
2022-09-30T05:38:09.681Z,98722.09
2022-09-30T05:40:39.787Z,98727.47
2022-09-30T05:43:06.945Z,98738.50
2022-09-30T05:45:34.377Z,98741.19
2022-09-30T05:48:01.894Z,98740.44
2022-09-30T05:50:28.283Z,98748.03
2022-09-30T05:52:54.690Z,98743.06
2022-09-30T05:55:21.097Z,98752.75
2022-09-30T05:57:48.895Z,98746.72
2022-09-30T06:00:16.127Z,98751.84
2022-09-30T06:02:42.832Z,98751.09
2022-09-30T06:05:10.241Z,98755.84
2022-09-30T06:07:38.108Z,98731.81
2022-09-30T06:10:07.083Z,98742.47
2022-09-30T06:12:34.633Z,98769.94
2022-09-30T06:15:01.295Z,98750.19
2022-09-30T06:17:27.748Z,98751.00
2022-09-30T06:19:54.136Z,98751.00
2022-09-30T06:22:20.558Z,98770.19
2022-09-30T06:24:48.653Z,98776.00
2022-09-30T06:27:18.115Z,98788.53
2022-09-30T06:29:44.468Z,98786.75
2022-09-30T06:32:10.782Z,98795.25
2022-09-30T06:34:37.186Z,98787.19
2022-09-30T06:37:03.543Z,98803.19
2022-09-30T06:39:29.926Z,98805.13
2022-09-30T06:41:56.611Z,98787.03
2022-09-30T06:44:23.111Z,98821.47
2022-09-30T06:46:53.836Z,98818.69
2022-09-30T06:49:20.935Z,98821.00
2022-09-30T06:51:47.286Z,98822.47
2022-09-30T06:54:13.730Z,98832.59
2022-09-30T06:56:40.233Z,98824.75
2022-09-30T06:59:07.259Z,98817.94
2022-09-30T07:01:33.739Z,98815.50
2022-09-30T07:04:00.258Z,98820.16
2022-09-30T07:06:26.973Z,98811.69
2022-09-30T07:08:53.326Z,98817.22
2022-09-30T07:11:19.756Z,98819.50
2022-09-30T07:13:48.190Z,98827.16
2022-09-30T07:16:16.693Z,98828.63
2022-09-30T07:18:43.973Z,98831.91
2022-09-30T07:21:11.307Z,98832.81
2022-09-30T07:23:37.964Z,98827.97
2022-09-30T07:26:05.134Z,98828.22
2022-09-30T07:28:34.505Z,98825.50
2022-09-30T07:31:31.226Z,98833.03
2022-09-30T07:33:54.289Z,98842.44
2022-09-30T07:36:26.140Z,98835.72
2022-09-30T07:38:54.953Z,98833.94
2022-09-30T07:41:26.831Z,98842.56
2022-09-30T07:43:55.549Z,98845.34
2022-09-30T07:46:27.988Z,98855.63
2022-09-30T07:48:56.224Z,98848.19
2022-09-30T07:51:29.054Z,98846.19
2022-09-30T07:53:58.042Z,98849.94
2022-09-30T07:56:25.905Z,98846.56
2022-09-30T07:58:57.496Z,98843.94
2022-09-30T08:01:24.353Z,98848.25
2022-09-30T08:03:54.919Z,98859.81
2022-09-30T08:06:21.814Z,98859.47
2022-09-30T08:08:51.576Z,98849.81
2022-09-30T08:11:18.191Z,98846.28
2022-09-30T08:13:44.758Z,98845.19
2022-09-30T08:16:11.086Z,98853.25
2022-09-30T08:18:37.483Z,98843.84
2022-09-30T08:21:07.274Z,98843.78
2022-09-30T08:23:34.789Z,98848.06
2022-09-30T08:26:07.201Z,98849.47
2022-09-30T08:28:34.460Z,98849.22
2022-09-30T08:31:21.486Z,98847.56
2022-09-30T08:33:50.266Z,98854.88
2022-09-30T08:36:19.525Z,98854.41
2022-09-30T08:38:46.064Z,98852.53
2022-09-30T08:41:34.474Z,98852.25
2022-09-30T08:44:34.357Z,98857.69
2022-09-30T08:47:30.846Z,98854.59
2022-09-30T08:50:06.586Z,98850.78
2022-09-30T08:52:48.156Z,98856.88
2022-09-30T08:55:24.015Z,98864.06
2022-09-30T08:57:54.119Z,98865.78
2022-09-30T09:00:21.188Z,98856.69
2022-09-30T09:02:52.544Z,98856.06
2022-09-30T09:05:39.427Z,98852.72
2022-09-30T09:08:05.972Z,98857.66
2022-09-30T09:10:46.174Z,98852.22
2022-09-30T09:13:27.875Z,98857.69
2022-09-30T09:16:20.694Z,98862.47
2022-09-30T09:18:53.960Z,98848.00
2022-09-30T09:21:21.815Z,98851.50
2022-09-30T09:23:53.857Z,98847.66
2022-09-30T09:26:25.069Z,98858.06
2022-09-30T09:29:20.580Z,98850.72
2022-09-30T09:31:47.273Z,98847.25
2022-09-30T09:34:20.734Z,98837.25
2022-09-30T09:36:47.263Z,98829.72
2022-09-30T09:39:36.274Z,98832.41
2022-09-30T09:42:22.726Z,98837.22
2022-09-30T09:45:02.629Z,98822.63
2022-09-30T09:47:29.416Z,98820.34
2022-09-30T09:49:58.582Z,98819.75
2022-09-30T09:52:58.044Z,98822.00
2022-09-30T09:55:24.620Z,98820.22
2022-09-30T09:58:12.405Z,98831.00
2022-09-30T10:00:39.054Z,98817.59
2022-09-30T10:03:17.791Z,98820.34
2022-09-30T10:05:45.007Z,98818.91
2022-09-30T10:08:20.353Z,98816.53
2022-09-30T10:10:52.594Z,98801.66
2022-09-30T10:13:25.520Z,98798.53
2022-09-30T10:15:55.456Z,98803.94
2022-09-30T10:18:28.756Z,98808.53
2022-09-30T10:21:01.303Z,98799.94
2022-09-30T10:23:32.183Z,98803.25
2022-09-30T10:26:15.241Z,98797.59
2022-09-30T10:29:01.454Z,98797.00
2022-09-30T10:31:34.164Z,98800.22
2022-09-30T10:34:12.205Z,98796.91
2022-09-30T10:36:41.389Z,98793.56
2022-09-30T10:39:19.697Z,98799.09
2022-09-30T10:41:46.572Z,98802.72
2022-09-30T10:44:17.198Z,98802.66
2022-09-30T10:46:46.713Z,98801.84
2022-09-30T10:49:30.981Z,98801.59
2022-09-30T10:51:59.550Z,98796.72
2022-09-30T10:54:55.649Z,98797.03
2022-09-30T10:57:29.302Z,98800.31
2022-09-30T11:00:15.496Z,98797.94
2022-09-30T11:03:14.955Z,98794.66
2022-09-30T11:05:44.346Z,98798.97
2022-09-30T11:08:26.377Z,98793.88
2022-09-30T11:11:14.580Z,98798.84
2022-09-30T11:14:00.399Z,98795.16
2022-09-30T11:16:47.566Z,98795.03
2022-09-30T11:19:36.217Z,98793.91
2022-09-30T11:22:32.857Z,98789.59
2022-09-30T11:24:59.459Z,98784.88
2022-09-30T11:27:47.860Z,98786.00
2022-09-30T11:30:40.683Z,98790.88
2022-09-30T11:33:37.202Z,98773.59
2022-09-30T11:36:42.731Z,98781.66
2022-09-30T11:39:09.750Z,98781.22
2022-09-30T11:41:44.416Z,98784.94
2022-09-30T11:47:06.375Z,98783.47
2022-09-30T11:49:44.894Z,98790.13
2022-09-30T11:52:36.217Z,98790.06
2022-09-30T11:55:46.159Z,98778.41
2022-09-30T11:58:39.867Z,98781.91
2022-09-30T12:01:16.015Z,98780.94
2022-09-30T12:03:46.280Z,98777.84
2022-09-30T12:06:28.727Z,98777.59
2022-09-30T12:09:02.914Z,98779.84
2022-09-30T12:11:53.535Z,98780.97
2022-09-30T12:14:34.723Z,98783.56
2022-09-30T12:17:04.781Z,98774.09
2022-09-30T12:19:38.476Z,98775.16
2022-09-30T12:22:14.142Z,98787.63
2022-09-30T12:24:42.942Z,98774.41
2022-09-30T12:27:23.998Z,98785.28
2022-09-30T12:30:01.558Z,98784.63
2022-09-30T12:32:52.686Z,98787.78
2022-09-30T12:35:30.980Z,98786.06
2022-09-30T12:38:25.116Z,98774.78
2022-09-30T12:41:13.275Z,98772.25
2022-09-30T12:44:02.251Z,98779.59
2022-09-30T12:46:43.118Z,98775.72
2022-09-30T12:49:15.070Z,98778.59
2022-09-30T12:51:43.585Z,98781.16
2022-09-30T12:54:25.422Z,98782.81
2022-09-30T12:56:58.403Z,98778.13
2022-09-30T12:59:33.937Z,98778.97
2022-09-30T13:02:03.234Z,98782.28
2022-09-30T13:04:38.533Z,98777.22
2022-09-30T13:07:16.762Z,98783.78
2022-09-30T13:10:01.414Z,98777.63
2022-09-30T13:12:43.658Z,98777.56
2022-09-30T13:15:37.181Z,98766.44
2022-09-30T13:18:22.165Z,98778.22
2022-09-30T13:21:16.852Z,98782.34
2022-09-30T13:23:51.804Z,98782.56
2022-09-30T13:26:27.621Z,98784.16
2022-09-30T13:29:00.444Z,98787.22
2022-09-30T13:31:49.589Z,98781.94
2022-09-30T13:34:30.639Z,98775.75
2022-09-30T13:37:00.466Z,98773.25
2022-09-30T13:39:43.340Z,98777.19
2022-09-30T13:42:30.220Z,98780.31
2022-09-30T13:45:02.058Z,98786.72
2022-09-30T13:47:35.301Z,98779.88
2022-09-30T13:50:28.052Z,98782.44
2022-09-30T13:53:02.094Z,98781.44
2022-09-30T13:55:36.617Z,98778.56
2022-09-30T13:58:31.173Z,98779.47
2022-09-30T14:01:00.423Z,98772.72
2022-09-30T14:03:55.804Z,98775.22
2022-09-30T14:06:37.466Z,98764.50
2022-09-30T14:09:35.808Z,98763.59
2022-09-30T14:12:10.115Z,98764.97
2022-09-30T14:15:03.965Z,98764.03
2022-09-30T14:17:45.537Z,98765.97
2022-09-30T14:20:32.442Z,98763.59
2022-09-30T14:22:59.000Z,98762.88
2022-09-30T14:25:25.495Z,98769.06
2022-09-30T14:28:05.159Z,98758.63
2022-09-30T14:30:40.041Z,98758.38
2022-09-30T14:33:16.015Z,98768.97
2022-09-30T14:35:42.448Z,98761.34
2022-09-30T14:38:22.170Z,98765.81
2022-09-30T14:40:54.447Z,98760.81
2022-09-30T14:43:27.699Z,98753.38
2022-09-30T14:45:56.616Z,98763.47
2022-09-30T14:48:28.181Z,98755.97
2022-09-30T14:51:09.006Z,98755.38
2022-09-30T14:53:40.692Z,98761.41
2022-09-30T14:56:26.035Z,98756.88
2022-09-30T14:58:53.277Z,98754.31
2022-09-30T15:01:20.646Z,98763.41
2022-09-30T15:04:12.637Z,98756.25
2022-09-30T15:06:44.265Z,98765.25
2022-09-30T15:09:20.579Z,98764.97
2022-09-30T15:11:47.083Z,98765.72
2022-09-30T15:14:22.756Z,98769.56
2022-09-30T15:16:51.747Z,98766.13
2022-09-30T15:19:26.600Z,98758.84
2022-09-30T15:21:55.534Z,98756.47
2022-09-30T15:24:25.573Z,98765.84
2022-09-30T15:26:53.225Z,98769.03
2022-09-30T15:29:19.707Z,98768.88
2022-09-30T15:31:49.203Z,98771.53
2022-09-30T15:34:23.903Z,98771.59
2022-09-30T15:37:02.355Z,98779.84
2022-09-30T15:39:30.402Z,98778.47
2022-09-30T15:41:57.128Z,98775.88
2022-09-30T15:44:39.722Z,98765.84
2022-09-30T15:47:09.153Z,98761.13
2022-09-30T15:49:38.220Z,98765.19
2022-09-30T15:52:28.298Z,98772.09
2022-09-30T15:54:55.846Z,98769.94
2022-09-30T15:57:45.543Z,98771.88
2022-09-30T16:00:42.206Z,98774.69
2022-09-30T16:03:29.158Z,98777.47
2022-09-30T16:06:16.754Z,98775.78
2022-09-30T16:08:45.956Z,98767.88
2022-09-30T16:12:02.153Z,98766.75
2022-09-30T16:14:49.122Z,98767.44
2022-09-30T16:17:24.654Z,98771.91
2022-09-30T16:19:52.221Z,98769.13
2022-09-30T16:22:35.311Z,98771.63
2022-09-30T16:25:08.731Z,98767.56
2022-09-30T16:27:35.188Z,98776.75
2022-09-30T16:30:02.415Z,98779.66
2022-09-30T16:32:32.210Z,98771.91
2022-09-30T16:34:58.775Z,98767.97
2022-09-30T16:37:25.308Z,98767.94
2022-09-30T16:39:52.047Z,98758.44
2022-09-30T16:42:19.139Z,98764.66
2022-09-30T16:44:45.569Z,98752.28
2022-09-30T16:47:14.377Z,98751.41
2022-09-30T16:49:41.016Z,98756.91
2022-09-30T16:52:07.330Z,98755.41
2022-09-30T16:54:33.969Z,98755.69
2022-09-30T16:57:01.076Z,98764.38
2022-09-30T16:59:27.958Z,98763.09
2022-09-30T17:01:54.320Z,98775.38
2022-09-30T17:04:20.998Z,98770.34
2022-09-30T17:06:47.525Z,98764.03
2022-09-30T17:09:14.040Z,98768.97
2022-09-30T17:11:40.340Z,98764.91
2022-09-30T17:14:06.715Z,98768.91
2022-09-30T17:16:34.099Z,98782.59
2022-09-30T17:19:00.766Z,98775.75
2022-09-30T17:21:27.567Z,98792.28
2022-09-30T17:23:55.258Z,98786.78
2022-09-30T17:26:22.773Z,98790.50
2022-09-30T17:28:49.105Z,98784.41
2022-09-30T17:31:15.544Z,98785.81
2022-09-30T17:33:43.024Z,98790.66
2022-09-30T17:36:12.365Z,98798.22
2022-09-30T17:38:39.343Z,98805.75
2022-09-30T17:41:07.236Z,98807.41
2022-09-30T17:43:33.694Z,98806.19
2022-09-30T17:46:00.209Z,98799.22
2022-09-30T17:48:26.990Z,98801.34
2022-09-30T17:50:53.372Z,98810.06
2022-09-30T17:53:22.171Z,98810.78
2022-09-30T17:56:00.399Z,98808.69
2022-09-30T17:58:26.705Z,98816.72
2022-09-30T18:00:53.189Z,98806.16
2022-09-30T18:03:19.641Z,98818.34
2022-09-30T18:05:46.571Z,98814.28
2022-09-30T18:08:13.299Z,98806.81
2022-09-30T18:10:39.922Z,98814.91
2022-09-30T18:13:06.610Z,98824.94
2022-09-30T18:15:33.021Z,98818.22
2022-09-30T18:17:59.426Z,98828.34
2022-09-30T18:20:25.925Z,98833.22
2022-09-30T18:22:52.522Z,98828.63
2022-09-30T18:25:18.998Z,98830.09
2022-09-30T18:27:47.305Z,98829.66
2022-09-30T18:30:13.814Z,98844.50
2022-09-30T18:32:40.517Z,98851.88
2022-09-30T18:35:07.366Z,98843.88
2022-09-30T18:37:33.740Z,98843.16
2022-09-30T18:40:00.202Z,98841.56
2022-09-30T18:42:26.927Z,98845.56
2022-09-30T18:44:53.657Z,98847.44
2022-09-30T18:47:20.025Z,98860.69
2022-09-30T18:49:46.487Z,98855.34
2022-09-30T18:52:12.881Z,98860.06
2022-09-30T18:54:39.223Z,98850.16
2022-09-30T18:57:05.583Z,98846.19
2022-09-30T18:59:32.039Z,98859.31
2022-09-30T19:01:58.530Z,98859.53
2022-09-30T19:04:24.985Z,98851.41
2022-09-30T19:06:51.313Z,98844.25
2022-09-30T19:09:17.748Z,98856.56
2022-09-30T19:11:44.217Z,98853.94
2022-09-30T19:14:13.790Z,98847.09
2022-09-30T19:16:40.828Z,98845.31
2022-09-30T19:19:09.074Z,98839.63
2022-09-30T19:21:36.799Z,98843.38
2022-09-30T19:24:07.864Z,98846.22
2022-09-30T19:26:37.298Z,98838.75
2022-09-30T19:29:05.484Z,98845.34
2022-09-30T19:31:32.829Z,98836.09
2022-09-30T19:33:59.444Z,98835.66
2022-09-30T19:36:25.835Z,98828.09
2022-09-30T19:39:05.529Z,98826.19
2022-09-30T19:41:34.885Z,98833.25
2022-09-30T19:44:02.053Z,98828.19
2022-09-30T19:46:29.180Z,98829.22
2022-09-30T19:48:55.742Z,98823.50
2022-09-30T19:51:22.463Z,98811.00
2022-09-30T19:54:00.146Z,98815.94
2022-09-30T19:56:28.585Z,98830.13
2022-09-30T19:58:55.172Z,98826.91
2022-09-30T20:01:23.367Z,98820.59
2022-09-30T20:03:52.243Z,98830.91
2022-09-30T20:06:18.735Z,98827.91
2022-09-30T20:08:51.485Z,98820.31
2022-09-30T20:11:20.739Z,98819.50
2022-09-30T20:13:50.325Z,98818.75
2022-09-30T20:16:17.179Z,98800.22
2022-09-30T20:18:43.987Z,98811.56
2022-09-30T20:21:15.407Z,98812.69
2022-09-30T20:23:42.718Z,98819.81
2022-09-30T20:26:12.667Z,98819.06
2022-09-30T20:28:39.540Z,98790.44
2022-09-30T20:31:07.852Z,98824.88
2022-09-30T20:33:34.404Z,98823.44
2022-09-30T20:36:01.102Z,98821.78
2022-09-30T20:38:27.468Z,98822.16
2022-09-30T20:40:55.666Z,98825.06
2022-09-30T20:43:22.210Z,98825.34
2022-09-30T20:45:59.839Z,98821.94
2022-09-30T20:48:31.233Z,98829.06
2022-09-30T20:51:00.338Z,98826.38
2022-09-30T20:53:26.731Z,98832.63
2022-09-30T20:55:53.045Z,98840.56
2022-09-30T20:58:20.841Z,98834.88
2022-09-30T21:00:47.404Z,98850.50
2022-09-30T21:03:14.382Z,98844.84
2022-09-30T21:05:40.973Z,98850.78
2022-09-30T21:08:07.401Z,98848.34
2022-09-30T21:10:36.053Z,98858.63
2022-09-30T21:13:06.949Z,98850.78
2022-09-30T21:15:33.316Z,98851.97
2022-09-30T21:17:59.977Z,98846.28
2022-09-30T21:20:26.582Z,98842.69
2022-09-30T21:22:53.233Z,98840.16
2022-09-30T21:25:19.853Z,98846.63
2022-09-30T21:27:47.704Z,98848.31
2022-09-30T21:30:15.230Z,98845.78
2022-09-30T21:32:45.414Z,98825.75
2022-09-30T21:35:13.065Z,98840.91
2022-09-30T21:37:41.268Z,98839.59
2022-09-30T21:40:09.707Z,98834.09
2022-09-30T21:42:37.172Z,98829.97
2022-09-30T21:45:04.935Z,98833.50
2022-09-30T21:47:31.568Z,98831.16
2022-09-30T21:49:57.908Z,98837.59
2022-09-30T21:52:24.481Z,98824.13
2022-09-30T21:54:50.863Z,98831.88
2022-09-30T21:57:17.369Z,98825.72
2022-09-30T21:59:47.392Z,98818.78
2022-09-30T22:02:16.596Z,98828.34
2022-09-30T22:04:42.970Z,98821.31
2022-09-30T22:07:09.264Z,98818.06
2022-09-30T22:09:39.248Z,98818.88
2022-09-30T22:12:06.866Z,98819.06
2022-09-30T22:14:33.306Z,98812.31
2022-09-30T22:16:59.613Z,98809.59
2022-09-30T22:19:26.179Z,98808.94
2022-09-30T22:21:52.722Z,98800.53
2022-09-30T22:24:21.855Z,98803.06
2022-09-30T22:26:48.149Z,98796.97
2022-09-30T22:29:15.572Z,98793.59
2022-09-30T22:31:42.039Z,98790.16
2022-09-30T22:34:12.284Z,98792.88
2022-09-30T22:36:39.119Z,98787.91
2022-09-30T22:39:05.437Z,98784.44
2022-09-30T22:41:32.250Z,98775.94
2022-09-30T22:43:58.865Z,98776.66
2022-09-30T22:46:25.254Z,98771.69
2022-09-30T22:48:53.430Z,98762.59
2022-09-30T22:51:20.061Z,98778.72
2022-09-30T22:53:46.387Z,98773.56
2022-09-30T22:56:13.378Z,98771.88
2022-09-30T22:58:39.673Z,98764.47
2022-09-30T23:01:06.075Z,98772.91
2022-09-30T23:03:32.899Z,98771.50
2022-09-30T23:06:01.056Z,98774.94
2022-09-30T23:08:31.328Z,98762.88
2022-09-30T23:10:57.669Z,98767.19
2022-09-30T23:13:24.015Z,98755.28
2022-09-30T23:15:57.946Z,98756.91
2022-09-30T23:18:24.288Z,98754.63
2022-09-30T23:21:03.948Z,98765.00
2022-09-30T23:23:34.625Z,98757.06
2022-09-30T23:26:04.219Z,98760.69
2022-09-30T23:28:30.797Z,98763.41
2022-09-30T23:31:01.754Z,98760.97
2022-09-30T23:33:28.301Z,98760.63
2022-09-30T23:35:54.990Z,98759.59
2022-09-30T23:38:25.531Z,98757.72
2022-09-30T23:40:52.343Z,98757.91
2022-09-30T23:43:18.813Z,98762.69
2022-09-30T23:45:45.501Z,98745.44
2022-09-30T23:48:11.848Z,98746.25
2022-09-30T23:50:39.978Z,98751.22
2022-09-30T23:53:06.352Z,98746.09
2022-09-30T23:55:32.758Z,98746.91
2022-09-30T23:57:59.102Z,98755.66
